createdAt,value
2022-08-09T00:01:42.816Z,15.50
2022-08-09T00:04:34.662Z,15.40
2022-08-09T00:07:03.657Z,15.40
2022-08-09T00:09:35.289Z,15.40
2022-08-09T00:12:05.030Z,15.40
2022-08-09T00:14:38.060Z,15.30
2022-08-09T00:17:06.954Z,15.30
2022-08-09T00:19:34.254Z,15.30
2022-08-09T00:22:03.605Z,15.30
2022-08-09T00:24:32.286Z,15.30
2022-08-09T00:27:00.584Z,15.30
2022-08-09T00:30:09.901Z,15.20
2022-08-09T00:32:26.941Z,15.30
2022-08-09T00:34:55.413Z,15.30
2022-08-09T00:37:23.009Z,15.30
2022-08-09T00:40:14.128Z,15.20
2022-08-09T00:44:13.805Z,15.20
2022-08-09T00:45:26.234Z,15.20
2022-08-09T00:47:55.434Z,15.20
2022-08-09T00:50:24.277Z,15.10
2022-08-09T00:52:52.679Z,15.10
2022-08-09T00:56:03.179Z,15.20
2022-08-09T00:58:09.048Z,15.20
2022-08-09T01:00:40.666Z,15.10
2022-08-09T01:03:28.454Z,15.10
2022-08-09T01:06:18.050Z,15.10
2022-08-09T01:09:23.245Z,15.10
2022-08-09T01:11:55.946Z,15.10
2022-08-09T01:14:30.383Z,15.00
2022-08-09T01:17:12.351Z,14.90
2022-08-09T01:19:57.007Z,14.90
2022-08-09T01:22:42.553Z,14.90
2022-08-09T01:25:53.983Z,14.90
2022-08-09T01:28:23.510Z,14.90
2022-08-09T01:30:59.115Z,14.80
2022-08-09T01:33:29.464Z,14.80
2022-08-09T01:36:08.844Z,14.80
2022-08-09T01:38:40.037Z,14.80
2022-08-09T01:41:17.832Z,14.70
2022-08-09T01:43:50.485Z,14.70
2022-08-09T01:46:24.910Z,14.80
2022-08-09T01:49:00.132Z,14.80
2022-08-09T01:51:39.185Z,14.70
2022-08-09T01:54:11.144Z,14.70
2022-08-09T01:56:41.889Z,14.70
2022-08-09T01:59:16.130Z,14.70
2022-08-09T02:01:58.390Z,14.60
2022-08-09T02:04:30.229Z,14.60
2022-08-09T02:07:02.706Z,14.60
2022-08-09T02:09:42.446Z,14.60
2022-08-09T02:12:13.477Z,14.60
2022-08-09T02:14:52.011Z,14.50
2022-08-09T02:17:59.440Z,14.50
2022-08-09T02:20:11.780Z,14.50
2022-08-09T02:23:00.074Z,14.40
2022-08-09T02:25:30.640Z,14.50
2022-08-09T02:28:04.030Z,14.40
2022-08-09T02:30:55.803Z,14.40
2022-08-09T02:33:37.743Z,14.30
2022-08-09T02:36:16.735Z,14.30
2022-08-09T02:38:50.540Z,14.30
2022-08-09T02:41:28.112Z,14.30
2022-08-09T02:44:10.262Z,14.30
2022-08-09T02:46:42.500Z,14.30
2022-08-09T02:49:16.085Z,14.20
2022-08-09T02:51:46.992Z,14.20
2022-08-09T02:54:16.718Z,14.20
2022-08-09T02:56:51.264Z,14.20
2022-08-09T02:59:26.370Z,14.20
2022-08-09T03:02:07.114Z,14.20
2022-08-09T03:04:41.833Z,14.20
2022-08-09T03:07:12.413Z,14.10
2022-08-09T03:09:43.799Z,14.10
2022-08-09T03:12:26.011Z,14.10
2022-08-09T03:14:57.395Z,14.00
2022-08-09T03:17:27.203Z,14.00
2022-08-09T03:20:03.285Z,14.00
2022-08-09T03:22:41.856Z,14.00
2022-08-09T03:25:25.849Z,14.00
2022-08-09T03:27:59.266Z,13.90
2022-08-09T03:30:33.200Z,13.90
2022-08-09T03:33:13.007Z,13.90
2022-08-09T03:36:16.594Z,13.90
2022-08-09T03:38:32.767Z,13.80
2022-08-09T03:41:00.368Z,13.90
2022-08-09T03:43:31.838Z,13.90
2022-08-09T03:46:05.197Z,13.90
2022-08-09T03:48:55.095Z,13.90
2022-08-09T03:51:55.814Z,13.90
2022-08-09T03:54:11.967Z,13.90
2022-08-09T03:56:41.161Z,14.10
2022-08-09T03:59:17.099Z,14.20
2022-08-09T04:01:50.627Z,14.30
2022-08-09T04:04:18.908Z,14.50
2022-08-09T04:06:49.336Z,14.70
2022-08-09T04:09:47.693Z,14.90
2022-08-09T04:12:12.043Z,15.00
2022-08-09T04:15:01.873Z,15.30
2022-08-09T04:17:42.506Z,15.50
2022-08-09T04:20:12.744Z,15.70
2022-08-09T04:22:41.341Z,15.90
2022-08-09T04:25:13.010Z,16.10
2022-08-09T04:27:40.618Z,16.30
2022-08-09T04:30:23.346Z,16.50
2022-08-09T04:32:54.059Z,16.60
2022-08-09T04:35:21.790Z,16.80
2022-08-09T04:37:49.249Z,16.90
2022-08-09T04:40:28.596Z,17.20
2022-08-09T04:43:04.019Z,17.40
2022-08-09T04:45:36.220Z,17.60
2022-08-09T04:48:20.079Z,17.90
2022-08-09T04:50:50.071Z,18.20
2022-08-09T04:53:17.226Z,18.30
2022-08-09T04:55:57.721Z,18.50
2022-08-09T04:58:31.903Z,18.70
2022-08-09T05:01:01.983Z,19.00
2022-08-09T05:03:40.142Z,19.20
2022-08-09T05:06:11.442Z,19.40
2022-08-09T05:08:38.887Z,19.60
2022-08-09T05:11:11.341Z,19.90
2022-08-09T05:13:39.196Z,20.10
2022-08-09T05:16:10.350Z,20.30
2022-08-09T05:18:55.110Z,20.50
2022-08-09T05:21:30.259Z,20.80
2022-08-09T05:24:04.874Z,20.90
2022-08-09T05:26:37.007Z,21.10
2022-08-09T05:29:17.328Z,21.30
2022-08-09T05:31:56.161Z,21.50
2022-08-09T05:34:30.887Z,21.70
2022-08-09T05:37:07.043Z,22.00
2022-08-09T05:39:43.223Z,22.20
2022-08-09T05:42:20.607Z,22.40
2022-08-09T05:44:51.006Z,22.60
2022-08-09T05:47:21.529Z,22.90
2022-08-09T05:50:25.547Z,23.10
2022-08-09T05:52:39.508Z,23.40
2022-08-09T05:55:08.519Z,23.60
2022-08-09T05:57:51.297Z,23.60
2022-08-09T06:00:25.008Z,23.80
2022-08-09T06:02:54.509Z,24.00
2022-08-09T06:05:31.284Z,24.30
2022-08-09T06:08:13.185Z,24.60
2022-08-09T06:10:40.323Z,25.00
2022-08-09T06:13:12.414Z,25.20
2022-08-09T06:15:47.193Z,25.50
2022-08-09T06:18:18.028Z,25.80
2022-08-09T06:20:54.217Z,26.00
2022-08-09T06:23:54.947Z,26.20
2022-08-09T06:26:20.389Z,26.50
2022-08-09T06:29:01.103Z,26.80
2022-08-09T06:31:40.553Z,27.20
2022-08-09T06:34:22.909Z,27.60
2022-08-09T06:36:59.221Z,27.90
2022-08-09T06:39:49.069Z,28.20
2022-08-09T06:42:17.497Z,28.60
2022-08-09T06:44:53.999Z,29.00
2022-08-09T06:47:23.747Z,29.50
2022-08-09T06:50:14.442Z,29.80
2022-08-09T06:52:39.718Z,30.50
2022-08-09T06:55:12.567Z,31.00
2022-08-09T06:58:01.423Z,31.30
2022-08-09T07:00:52.114Z,31.40
2022-08-09T07:03:15.955Z,32.00
2022-08-09T07:06:03.056Z,32.30
2022-08-09T07:08:30.719Z,32.50
2022-08-09T07:10:57.756Z,33.10
2022-08-09T07:13:28.197Z,33.50
2022-08-09T07:16:42.047Z,34.00
2022-08-09T07:18:47.343Z,34.40
2022-08-09T07:21:18.723Z,35.00
2022-08-09T07:23:56.436Z,35.50
2022-08-09T07:26:26.571Z,35.90
2022-08-09T07:29:01.260Z,36.20
2022-08-09T07:31:46.088Z,36.60
2022-08-09T07:34:20.561Z,37.00
2022-08-09T07:36:52.866Z,37.40
2022-08-09T07:39:40.443Z,37.60
2022-08-09T07:42:07.638Z,37.80
2022-08-09T07:44:52.473Z,37.80
2022-08-09T07:47:39.520Z,37.30
2022-08-09T07:50:09.359Z,36.70
2022-08-09T07:52:37.419Z,36.00
2022-08-09T07:55:09.512Z,35.60
2022-08-09T07:57:46.895Z,35.40
2022-08-09T08:00:20.643Z,35.50
2022-08-09T08:03:04.573Z,35.70
2022-08-09T08:05:54.064Z,36.10
2022-08-09T08:09:02.065Z,36.40
2022-08-09T08:12:10.142Z,36.30
2022-08-09T08:13:57.276Z,35.80
2022-08-09T08:16:29.827Z,35.10
2022-08-09T08:19:03.133Z,34.50
2022-08-09T08:21:31.070Z,33.90
2022-08-09T08:24:01.416Z,33.20
2022-08-09T08:26:41.975Z,32.80
2022-08-09T08:29:28.223Z,32.30
2022-08-09T08:32:03.776Z,32.00
2022-08-09T08:34:33.552Z,31.80
2022-08-09T08:37:02.425Z,31.50
2022-08-09T08:39:29.475Z,31.30
2022-08-09T08:42:07.215Z,31.20
2022-08-09T08:44:38.088Z,31.10
2022-08-09T08:47:12.146Z,30.90
2022-08-09T08:49:47.266Z,30.80
2022-08-09T08:52:58.018Z,30.70
2022-08-09T08:55:10.551Z,30.50
2022-08-09T08:57:38.216Z,30.40
2022-08-09T09:00:16.997Z,30.30
2022-08-09T09:03:01.521Z,30.10
2022-08-09T09:05:59.821Z,29.80
2022-08-09T09:08:31.042Z,29.60
2022-08-09T09:11:03.229Z,29.40
2022-08-09T09:13:54.863Z,29.30
2022-08-09T09:16:30.677Z,29.10
2022-08-09T09:19:40.400Z,28.80
2022-08-09T09:22:07.695Z,28.40
2022-08-09T09:26:01.158Z,28.10
2022-08-09T09:28:06.663Z,27.80
2022-08-09T09:30:51.325Z,27.60
2022-08-09T09:33:18.337Z,27.40
2022-08-09T09:36:02.356Z,27.20
2022-08-09T09:38:47.946Z,27.10
2022-08-09T09:41:25.050Z,27.00
2022-08-09T09:44:10.819Z,27.00
2022-08-09T09:46:43.575Z,26.80
2022-08-09T09:49:23.587Z,26.60
2022-08-09T09:52:16.572Z,26.50
2022-08-09T09:55:16.832Z,26.40
2022-08-09T09:58:03.081Z,26.40
2022-08-09T10:00:32.314Z,26.20
2022-08-09T10:03:11.449Z,26.10
2022-08-09T10:06:04.746Z,26.10
2022-08-09T10:08:32.849Z,26.00
2022-08-09T10:12:01.446Z,25.70
2022-08-09T10:14:33.700Z,25.60
2022-08-09T10:17:38.673Z,25.50
2022-08-09T10:20:00.304Z,25.60
2022-08-09T10:22:33.643Z,25.70
2022-08-09T10:25:11.619Z,25.60
2022-08-09T10:27:57.997Z,25.50
2022-08-09T10:33:29.902Z,25.20
2022-08-09T10:36:11.841Z,25.20
2022-08-09T10:38:57.257Z,25.10
2022-08-09T10:41:28.261Z,25.10
2022-08-09T10:43:59.929Z,25.00
2022-08-09T10:47:00.739Z,24.90
2022-08-09T10:49:54.050Z,24.90
2022-08-09T10:53:00.128Z,24.90
2022-08-09T10:55:35.733Z,24.80
2022-08-09T10:58:37.477Z,24.70
2022-08-09T11:03:02.075Z,24.60
2022-08-09T11:04:29.717Z,24.60
2022-08-09T11:06:59.967Z,24.70
2022-08-09T11:09:48.758Z,24.80
2022-08-09T11:12:18.493Z,24.70
2022-08-09T11:14:53.361Z,24.60
2022-08-09T11:17:23.772Z,24.50
2022-08-09T11:20:11.262Z,24.50
2022-08-09T11:22:55.298Z,24.50
2022-08-09T11:25:44.634Z,24.50
2022-08-09T11:28:54.707Z,24.40
2022-08-09T11:31:43.334Z,24.30
2022-08-09T11:34:48.403Z,24.30
2022-08-09T11:37:27.993Z,24.30
2022-08-09T11:40:11.119Z,24.30
2022-08-09T11:42:39.870Z,24.40
2022-08-09T11:45:26.205Z,24.50
2022-08-09T11:48:26.418Z,24.50
2022-08-09T11:52:48.785Z,24.40
2022-08-09T11:53:59.066Z,24.40
2022-08-09T11:56:41.298Z,24.30
2022-08-09T11:59:10.727Z,24.30
2022-08-09T12:02:16.954Z,24.30
2022-08-09T12:04:32.315Z,24.30
2022-08-09T12:07:07.627Z,24.40
2022-08-09T12:09:36.264Z,24.40
2022-08-09T12:12:05.028Z,24.40
2022-08-09T12:14:40.819Z,24.40
2022-08-09T12:17:33.984Z,24.40
2022-08-09T12:20:29.106Z,24.30
2022-08-09T12:23:02.981Z,24.10
2022-08-09T12:25:37.074Z,24.10
2022-08-09T12:29:11.489Z,23.90
2022-08-09T12:30:57.949Z,24.00
2022-08-09T12:33:26.445Z,24.10
2022-08-09T12:36:15.549Z,24.00
2022-08-09T12:38:55.894Z,24.00
2022-08-09T12:41:36.338Z,24.00
2022-08-09T12:44:09.663Z,24.00
2022-08-09T12:46:39.451Z,24.00
2022-08-09T12:49:08.457Z,23.90
2022-08-09T12:52:01.203Z,24.00
2022-08-09T12:54:23.900Z,24.00
2022-08-09T12:56:53.926Z,24.10
2022-08-09T12:59:57.830Z,24.10
2022-08-09T13:02:15.226Z,24.10
2022-08-09T13:04:58.864Z,24.10
2022-08-09T13:07:28.458Z,24.10
2022-08-09T13:10:13.343Z,24.00
2022-08-09T13:13:08.699Z,24.00
2022-08-09T13:15:35.214Z,24.10
2022-08-09T13:18:09.422Z,24.10
2022-08-09T13:22:34.193Z,24.10
2022-08-09T13:24:17.188Z,24.10
2022-08-09T13:26:36.763Z,24.00
2022-08-09T13:29:20.239Z,24.00
2022-08-09T13:32:15.991Z,23.90
2022-08-09T13:34:47.581Z,23.80
2022-08-09T13:37:50.666Z,23.80
2022-08-09T13:41:45.995Z,23.90
2022-08-09T13:42:52.232Z,23.90
2022-08-09T13:45:20.056Z,23.90
2022-08-09T13:47:51.871Z,23.90
2022-08-09T13:50:30.813Z,23.80
2022-08-09T13:52:58.460Z,23.90
2022-08-09T13:55:28.969Z,23.90
2022-08-09T13:57:58.496Z,23.90
2022-08-09T14:00:29.488Z,24.00
2022-08-09T14:03:02.936Z,24.00
2022-08-09T14:05:58.604Z,24.00
2022-08-09T14:08:30.185Z,23.90
2022-08-09T14:10:57.821Z,23.90
2022-08-09T14:14:15.311Z,23.90
2022-08-09T14:16:16.982Z,23.90
2022-08-09T14:18:49.509Z,23.90
2022-08-09T14:21:21.060Z,23.90
2022-08-09T14:23:55.175Z,23.90
2022-08-09T14:26:31.926Z,23.90
2022-08-09T14:29:07.884Z,24.10
2022-08-09T14:31:54.847Z,24.10
2022-08-09T14:34:31.134Z,24.00
2022-08-09T14:37:06.872Z,24.00
2022-08-09T14:39:40.057Z,23.90
2022-08-09T14:42:12.785Z,23.90
2022-08-09T14:44:59.407Z,23.90
2022-08-09T14:47:45.027Z,23.80
2022-08-09T14:50:16.135Z,23.70
2022-08-09T14:52:47.776Z,23.50
2022-08-09T14:55:20.441Z,23.60
2022-08-09T14:57:49.736Z,23.50
2022-08-09T15:00:17.540Z,23.40
2022-08-09T15:02:47.455Z,23.40
2022-08-09T15:05:19.910Z,23.40
2022-08-09T15:07:56.431Z,23.30
2022-08-09T15:10:26.921Z,23.40
2022-08-09T15:12:55.893Z,23.30
2022-08-09T15:15:24.337Z,23.40
2022-08-09T15:17:55.998Z,23.40
2022-08-09T15:21:57.883Z,23.40
2022-08-09T15:24:03.763Z,23.40
2022-08-09T15:25:58.814Z,23.40
2022-08-09T15:28:28.441Z,23.40
2022-08-09T15:31:08.946Z,23.40
2022-08-09T15:34:17.489Z,23.40
2022-08-09T15:36:29.355Z,23.40
2022-08-09T15:38:59.941Z,23.30
2022-08-09T15:41:31.660Z,23.30
2022-08-09T15:44:04.054Z,23.30
2022-08-09T15:46:34.505Z,23.40
2022-08-09T15:49:20.834Z,23.40
2022-08-09T15:52:05.032Z,23.40
2022-08-09T15:54:51.438Z,23.50
2022-08-09T15:57:34.159Z,23.50
2022-08-09T16:00:09.284Z,23.50
2022-08-09T16:02:41.726Z,23.50
2022-08-09T16:05:09.980Z,23.60
2022-08-09T16:07:39.543Z,23.70
2022-08-09T16:10:38.397Z,23.70
2022-08-09T16:13:01.238Z,23.80
2022-08-09T16:16:04.787Z,23.70
2022-08-09T16:18:15.800Z,23.70
2022-08-09T16:20:43.406Z,23.70
2022-08-09T16:23:14.232Z,23.50
2022-08-09T16:25:44.719Z,23.50
2022-08-09T16:28:17.025Z,23.40
2022-08-09T16:30:44.635Z,23.40
2022-08-09T16:33:15.954Z,23.40
2022-08-09T16:35:55.869Z,23.30
2022-08-09T16:38:25.927Z,23.30
2022-08-09T16:40:53.424Z,23.30
2022-08-09T16:43:22.607Z,23.30
2022-08-09T16:45:53.516Z,23.30
2022-08-09T16:48:43.172Z,23.20
2022-08-09T16:51:13.819Z,23.20
2022-08-09T16:54:09.134Z,23.10
2022-08-09T16:56:31.493Z,23.00
2022-08-09T16:59:01.063Z,23.00
2022-08-09T17:01:34.029Z,23.00
2022-08-09T17:04:03.099Z,22.90
2022-08-09T17:06:33.551Z,22.90
2022-08-09T17:09:45.539Z,22.90
2022-08-09T17:12:01.925Z,22.90
2022-08-09T17:14:34.671Z,22.90
2022-08-09T17:17:04.025Z,22.90
2022-08-09T17:20:28.815Z,22.80
2022-08-09T17:22:49.986Z,22.80
2022-08-09T17:25:22.049Z,22.70
2022-08-09T17:27:53.912Z,22.70
2022-08-09T17:30:26.108Z,22.70
2022-08-09T17:32:54.454Z,22.60
2022-08-09T17:35:25.760Z,22.60
2022-08-09T17:38:11.943Z,22.60
2022-08-09T17:40:40.589Z,22.60
2022-08-09T17:43:32.991Z,22.50
2022-08-09T17:46:02.577Z,22.50
2022-08-09T17:48:32.558Z,22.50
2022-08-09T17:51:10.390Z,22.50
2022-08-09T17:53:52.962Z,22.40
2022-08-09T17:56:26.731Z,22.40
2022-08-09T17:59:00.735Z,22.40
2022-08-09T18:01:58.225Z,22.30
2022-08-09T18:04:18.378Z,22.30
2022-08-09T18:06:49.791Z,22.30
2022-08-09T18:09:23.047Z,22.20
2022-08-09T18:12:05.708Z,22.20
2022-08-09T18:14:37.651Z,22.20
2022-08-09T18:17:18.801Z,22.10
2022-08-09T18:20:54.435Z,22.10
2022-08-09T18:22:44.207Z,22.10
2022-08-09T18:25:19.653Z,22.00
2022-08-09T18:28:04.893Z,22.00
2022-08-09T18:30:39.734Z,22.00
2022-08-09T18:33:23.097Z,21.90
2022-08-09T18:35:58.947Z,21.90
2022-08-09T18:38:28.249Z,21.80
2022-08-09T18:40:55.673Z,21.80
2022-08-09T18:43:23.757Z,21.80
2022-08-09T18:46:46.905Z,21.80
2022-08-09T18:48:39.298Z,21.80
2022-08-09T18:51:14.092Z,21.80
2022-08-09T18:54:00.826Z,21.70
2022-08-09T18:56:29.737Z,21.70
2022-08-09T18:58:57.411Z,21.60
2022-08-09T19:01:25.011Z,21.50
2022-08-09T19:04:01.343Z,21.40
2022-08-09T19:06:34.952Z,21.30
2022-08-09T19:09:07.554Z,21.20
2022-08-09T19:11:37.706Z,21.10
2022-08-09T19:14:06.941Z,21.10
2022-08-09T19:16:36.582Z,21.00
2022-08-09T19:19:25.122Z,20.90
2022-08-09T19:22:06.825Z,20.80
2022-08-09T19:25:09.851Z,20.70
2022-08-09T19:27:23.255Z,20.70
2022-08-09T19:30:21.108Z,20.60
2022-08-09T19:32:37.592Z,20.60
2022-08-09T19:35:05.507Z,20.50
2022-08-09T19:37:54.633Z,20.40
2022-08-09T19:40:21.583Z,20.30
2022-08-09T19:42:49.785Z,20.20
2022-08-09T19:45:17.821Z,20.20
2022-08-09T19:47:46.120Z,20.20
2022-08-09T19:50:49.206Z,20.10
2022-08-09T19:53:04.080Z,20.10
2022-08-09T19:56:03.332Z,20.00
2022-08-09T19:58:30.131Z,20.00
2022-08-09T20:00:58.056Z,19.90
2022-08-09T20:04:17.954Z,19.90
2022-08-09T20:06:23.605Z,19.80
2022-08-09T20:08:57.718Z,19.70
2022-08-09T20:11:33.891Z,19.70
2022-08-09T20:14:15.352Z,19.60
2022-08-09T20:16:53.312Z,19.50
2022-08-09T20:19:48.775Z,19.40
2022-08-09T20:22:14.581Z,19.30
2022-08-09T20:24:42.820Z,19.30
2022-08-09T20:27:21.400Z,19.20
2022-08-09T20:29:49.771Z,19.20
2022-08-09T20:32:30.830Z,19.20
2022-08-09T20:35:01.531Z,19.20
2022-08-09T20:38:08.640Z,19.10
2022-08-09T20:40:19.193Z,19.10
2022-08-09T20:42:59.832Z,19.00
2022-08-09T20:45:59.836Z,19.00
2022-08-09T20:48:15.677Z,19.00
2022-08-09T20:50:51.068Z,19.00
2022-08-09T20:53:36.868Z,19.00
2022-08-09T20:56:08.973Z,18.90
2022-08-09T20:58:36.484Z,18.80
2022-08-09T21:01:32.422Z,18.80
2022-08-09T21:05:52.442Z,18.70
2022-08-09T21:06:43.019Z,18.70
2022-08-09T21:09:13.956Z,18.60
2022-08-09T21:14:30.890Z,18.60
2022-08-09T21:17:00.045Z,18.50
2022-08-09T21:20:19.303Z,18.50
2022-08-09T21:22:36.271Z,18.50
2022-08-09T21:25:02.694Z,18.50
2022-08-09T21:27:51.900Z,18.50
2022-08-09T21:30:18.620Z,18.40
2022-08-09T21:32:46.671Z,18.40
2022-08-09T21:35:13.877Z,18.40
2022-08-09T21:37:59.368Z,18.30
2022-08-09T21:40:30.364Z,18.30
2022-08-09T21:43:00.850Z,18.30
2022-08-09T21:45:28.523Z,18.20
2022-08-09T21:47:58.854Z,18.20
2022-08-09T21:50:38.630Z,18.20
2022-08-09T21:53:15.613Z,18.10
2022-08-09T21:55:50.979Z,18.10
2022-08-09T21:58:18.424Z,18.10
2022-08-09T22:00:48.707Z,18.00
2022-08-09T22:03:25.772Z,18.10
2022-08-09T22:05:54.367Z,18.00
2022-08-09T22:08:24.773Z,18.00
2022-08-09T22:11:50.167Z,17.90
2022-08-09T22:13:43.348Z,17.90
2022-08-09T22:16:11.512Z,17.80
2022-08-09T22:18:54.327Z,17.80
2022-08-09T22:21:27.429Z,17.80
2022-08-09T22:24:16.960Z,17.80
2022-08-09T22:26:51.594Z,17.70
2022-08-09T22:29:19.852Z,17.70
2022-08-09T22:31:56.756Z,17.70
2022-08-09T22:34:26.790Z,17.70
2022-08-09T22:36:56.159Z,17.60
2022-08-09T22:39:56.091Z,17.60
2022-08-09T22:42:22.152Z,17.60
2022-08-09T22:48:06.196Z,17.60
2022-08-09T22:48:15.664Z,17.60
2022-08-09T22:50:29.099Z,17.60
2022-08-09T22:52:58.327Z,17.50
2022-08-09T22:55:39.697Z,17.40
2022-08-09T22:58:20.334Z,17.40
2022-08-09T23:00:58.300Z,17.40
2022-08-09T23:04:02.628Z,17.40
2022-08-09T23:06:14.034Z,17.30
2022-08-09T23:08:42.205Z,17.30
2022-08-09T23:11:09.228Z,17.20
2022-08-09T23:13:36.312Z,17.20
2022-08-09T23:16:04.211Z,17.20
2022-08-09T23:18:31.448Z,17.20
2022-08-09T23:20:58.478Z,17.20
2022-08-09T23:23:26.001Z,17.10
2022-08-09T23:25:53.030Z,17.10
2022-08-09T23:28:20.074Z,17.10
2022-08-09T23:30:51.325Z,17.00
2022-08-09T23:33:20.996Z,17.00
2022-08-09T23:36:06.208Z,17.00
2022-08-09T23:38:35.241Z,16.90
2022-08-09T23:41:03.464Z,16.90
2022-08-09T23:43:30.581Z,17.00
2022-08-09T23:45:57.676Z,16.90
2022-08-09T23:48:25.171Z,16.90
2022-08-09T23:50:52.171Z,16.90
2022-08-09T23:53:19.170Z,16.80
2022-08-09T23:55:54.536Z,16.80
2022-08-09T23:58:25.852Z,16.80
